Aérodrome :
LOGIN :

S'inscrire | Disclaimer

   EN    FR    IT 

 










Légende :    VFR   VFR Marginal   IFR   IFR Intensif   IFR Très Intensif
Visi : 
Plafond : 
>= 8 km
>= 3000ft
5 à 8 km
1000 à 3000 ft
1500m à 5 km
500 à 1000 ft
800 à 1500m
200 à 500 ft
< 800m
< 200 ft
Symboles :   Orages  Brouillard  Fortes neiges  Fortes précipitations  Vent > 20 kt
SIGMETs :   Divers  Orages  Givrage  Turbulence  Onde Orograph.  Cendres Volcan.







- Altitude de l'aérodrome : 13 ft
- Code IATA : OST


EBOS - Oostend bruges Int.

DERNIER METAR :
  • 240320Z 11003KT 8000 NSC 01/M01 Q1035 NOSIG

METARs EXPIRÉS :
  • 240250Z 11002KT CAVOK 02/01 Q1035 NOSIG
  • 240220Z 12002KT CAVOK 03/01 Q1035 NOSIG
  • 240150Z 05002KT CAVOK 03/00 Q1035 NOSIG
  • 240050Z 13006KT CAVOK 04/01 Q1035 NOSIG
  • 240020Z 12007KT CAVOK 05/01 Q1035 NOSIG

TAF TAF EBOS
Valide du 24 à 00h jusqu'au 25 à 06h UTC


232305Z 2400/2506 15003KT CAVOK
PROB40
TEMPO 2403/2408 1200 BCFG
Pas de NOTAMs connus pour ce terrain.



MET'MAP, la Météo Aéronautique d'un coup d'oeil ! - Copyright ORBIFLY Décembre 2007 - Disclaimer

ORBIFLY MET'MAP TEAM :

Programmation & Développement : Alexandra Zaïnal
Conception & Développement : Baudouin d'Aumeries
Co-Programmation & Développement : Marc-Olivier Méhu
Soutien technique & logistique : Manuel Goepfert

Contact : metmap@orbifly.com




SOURCES & CREDITS :

   NOAA